Time;durP1;ratioP1;P1;durP2;ratioP2;P2;SDS_P1;SDS_P2;PMS_P1;PMS_P2;Temp;Humidity;BMP_temperature;BMP_pressure;BME280_temperature;BME280_humidity;BME280_pressure;Samples;Min_cycle;Max_cycle;Signal;HPM_P1;HPM_P2
2023/06/27 00:02:14;;;;;;;6.60;2.30;;;19.60;8.10;;;;;;5046042;28;20470;-71
2023/06/27 00:04:41;;;;;;;6.53;2.00;;;19.50;8.20;;;;;;5046604;28;20481;-71
2023/06/27 00:07:09;;;;;;;6.77;2.27;;;19.50;8.30;;;;;;5047197;28;20459;-71
2023/06/27 00:09:36;;;;;;;8.27;2.30;;;19.50;8.50;;;;;;5046538;28;20467;-71
2023/06/27 00:12:03;;;;;;;5.67;2.27;;;19.40;8.50;;;;;;5047456;28;20810;-71
2023/06/27 00:14:32;;;;;;;5.93;1.93;;;19.40;8.60;;;;;;5048011;28;20493;-71
2023/06/27 00:17:00;;;;;;;6.87;2.10;;;19.30;8.70;;;;;;5044908;28;20459;-71
2023/06/27 00:19:30;;;;;;;7.57;2.20;;;19.30;8.90;;;;;;5047224;28;20458;-71
2023/06/27 00:21:57;;;;;;;7.93;2.10;;;19.30;9.00;;;;;;5045315;28;20465;-71
2023/06/27 00:24:24;;;;;;;6.90;2.10;;;19.30;9.00;;;;;;5048697;28;20505;-71
2023/06/27 00:26:51;;;;;;;9.33;2.50;;;19.30;9.00;;;;;;5043231;28;20485;-70
2023/06/27 00:29:17;;;;;;;7.53;2.13;;;19.30;9.00;;;;;;5044926;28;20567;-71
2023/06/27 00:31:44;;;;;;;8.13;2.53;;;19.30;9.10;;;;;;5047198;28;20471;-71
2023/06/27 00:34:11;;;;;;;5.93;2.27;;;19.20;9.30;;;;;;5045726;28;20858;-71
2023/06/27 00:36:39;;;;;;;9.53;2.37;;;19.20;9.30;;;;;;5046929;28;20465;-71
2023/06/27 00:39:06;;;;;;;7.97;2.13;;;19.20;9.40;;;;;;5043872;28;20462;-71
2023/06/27 00:41:32;;;;;;;7.87;1.80;;;19.20;9.50;;;;;;5047191;28;20501;-71
2023/06/27 00:43:59;;;;;;;7.63;2.23;;;19.20;9.50;;;;;;5043325;28;20485;-71
2023/06/27 00:46:35;;;;;;;6.33;2.10;;;19.20;9.50;;;;;;5044960;28;20458;-71
2023/06/27 00:49:02;;;;;;;6.80;2.23;;;19.20;9.50;;;;;;5043581;28;20514;-71
2023/06/27 00:51:29;;;;;;;5.40;2.20;;;19.20;9.50;;;;;;5046589;28;20477;-71
2023/06/27 00:53:57;;;;;;;8.27;2.10;;;19.20;9.40;;;;;;5047022;28;20485;-71
2023/06/27 00:56:26;;;;;;;6.43;1.80;;;19.20;9.50;;;;;;5043287;28;20458;-71
2023/06/27 00:58:54;;;;;;;5.83;1.80;;;19.20;9.30;;;;;;5044401;28;20470;-71
2023/06/27 01:01:21;;;;;;;9.77;2.00;;;19.10;9.50;;;;;;5045387;28;20470;-71
2023/06/27 01:03:48;;;;;;;8.70;1.90;;;19.10;9.50;;;;;;5044279;28;20486;-71
2023/06/27 01:06:23;;;;;;;5.30;1.70;;;19.10;9.60;;;;;;5043689;28;20900;-71
2023/06/27 01:08:57;;;;;;;6.03;2.17;;;19.00;9.50;;;;;;5046449;28;20488;-71
2023/06/27 01:11:30;;;;;;;6.93;2.40;;;19.00;9.60;;;;;;5040860;28;20458;-71
2023/06/27 01:13:58;;;;;;;6.43;2.53;;;18.90;9.90;;;;;;5044830;28;20489;-71
2023/06/27 01:16:29;;;;;;;6.97;2.97;;;18.90;10.00;;;;;;5045939;28;20469;-71
2023/06/27 01:18:58;;;;;;;9.37;2.50;;;18.80;10.30;;;;;;5065394;22;20943;-68
2023/06/27 01:21:28;;;;;;;7.93;2.03;;;18.70;10.60;;;;;;5062278;28;20469;-68
2023/06/27 01:23:58;;;;;;;6.03;2.37;;;18.70;10.60;;;;;;5055077;28;20504;-68
2023/06/27 01:26:26;;;;;;;8.33;2.13;;;18.70;10.50;;;;;;5050749;28;20549;-68
2023/06/27 01:28:53;;;;;;;6.80;1.90;;;18.70;10.80;;;;;;5045931;28;20482;-68
2023/06/27 01:31:26;;;;;;;5.33;1.80;;;18.70;10.90;;;;;;5049175;28;20481;-68
2023/06/27 01:34:00;;;;;;;6.80;2.60;;;18.70;11.20;;;;;;5043161;28;21016;-68
2023/06/27 01:36:33;;;;;;;7.47;3.03;;;18.70;11.30;;;;;;5046274;28;20462;-68
2023/06/27 01:39:07;;;;;;;5.27;1.63;;;18.60;11.20;;;;;;5044336;28;20457;-68
2023/06/27 01:41:37;;;;;;;7.27;2.37;;;18.60;11.00;;;;;;5048284;28;20458;-68
2023/06/27 01:44:06;;;;;;;5.10;2.07;;;18.60;11.10;;;;;;5049920;28;21239;-68
2023/06/27 01:46:33;;;;;;;5.03;1.97;;;18.50;11.20;;;;;;5047709;28;20789;-68
2023/06/27 01:49:02;;;;;;;12.20;2.30;;;18.40;11.20;;;;;;5048152;28;20481;-68
2023/06/27 01:51:29;;;;;;;6.80;2.43;;;18.40;11.30;;;;;;5046375;28;20454;-67
2023/06/27 01:53:56;;;;;;;5.40;2.53;;;18.40;11.50;;;;;;5045226;28;20486;-68
2023/06/27 01:56:24;;;;;;;6.80;2.70;;;18.40;11.70;;;;;;5044859;28;20472;-69
2023/06/27 01:58:51;;;;;;;6.80;2.20;;;18.30;12.00;;;;;;5046684;28;20454;-68
2023/06/27 02:01:18;;;;;;;6.77;2.20;;;18.20;12.20;;;;;;5050003;28;20505;-69
2023/06/27 02:03:44;;;;;;;9.40;2.30;;;18.20;12.40;;;;;;5049461;28;21024;-68
2023/06/27 02:06:11;;;;;;;6.13;2.00;;;18.20;12.40;;;;;;5051816;28;20461;-67
2023/06/27 02:08:38;;;;;;;5.43;2.10;;;18.10;12.40;;;;;;5050381;28;20991;-67
2023/06/27 02:11:05;;;;;;;6.70;2.50;;;18.00;12.50;;;;;;5051542;28;20461;-67
2023/06/27 02:13:37;;;;;;;8.40;2.43;;;17.90;12.60;;;;;;5046715;28;20496;-68
2023/06/27 02:16:04;;;;;;;6.17;2.30;;;17.90;12.70;;;;;;5051141;28;20449;-67
2023/06/27 02:18:31;;;;;;;6.67;2.20;;;17.90;12.80;;;;;;5049897;28;20953;-68
2023/06/27 02:20:58;;;;;;;6.70;2.67;;;17.80;12.90;;;;;;5051376;28;20488;-67
2023/06/27 02:23:25;;;;;;;8.83;2.30;;;17.70;13.10;;;;;;5051100;28;20480;-67
2023/06/27 02:25:52;;;;;;;5.40;2.10;;;17.70;13.10;;;;;;5049279;28;20457;-68
2023/06/27 02:28:18;;;;;;;6.97;2.43;;;17.70;13.70;;;;;;5048009;28;20482;-67
2023/06/27 02:30:46;;;;;;;5.80;2.37;;;17.60;13.50;;;;;;5047724;28;20852;-67
2023/06/27 02:33:13;;;;;;;7.03;2.10;;;17.60;13.60;;;;;;5050674;28;20485;-68
2023/06/27 02:35:40;;;;;;;6.00;2.23;;;17.60;13.30;;;;;;5050230;28;20469;-67
2023/06/27 02:38:07;;;;;;;12.10;2.00;;;17.60;13.40;;;;;;5050173;28;20850;-67
2023/06/27 02:40:33;;;;;;;7.73;1.97;;;17.60;13.50;;;;;;5047457;28;20861;-67
2023/06/27 02:43:00;;;;;;;8.33;3.27;;;17.50;13.80;;;;;;5050717;28;20560;-67
2023/06/27 02:45:27;;;;;;;9.57;3.10;;;17.50;13.80;;;;;;5049987;28;20469;-67
2023/06/27 02:47:55;;;;;;;8.90;2.47;;;17.50;14.00;;;;;;5046441;28;20833;-68
2023/06/27 02:50:22;;;;;;;7.93;2.33;;;17.40;14.10;;;;;;5050448;28;20482;-67
2023/06/27 02:52:48;;;;;;;7.80;2.43;;;17.40;14.20;;;;;;5048866;28;20505;-67
2023/06/27 02:55:15;;;;;;;7.37;2.40;;;17.40;14.30;;;;;;5049156;28;20458;-67
2023/06/27 02:57:42;;;;;;;8.60;2.50;;;17.40;14.40;;;;;;5049705;28;20466;-67
2023/06/27 03:00:10;;;;;;;8.40;2.53;;;17.40;14.70;;;;;;5049822;28;20565;-67
2023/06/27 03:02:36;;;;;;;8.67;3.00;;;17.40;14.90;;;;;;5047896;28;20912;-67
2023/06/27 03:05:05;;;;;;;8.63;2.97;;;17.30;15.20;;;;;;5046117;28;20473;-67
2023/06/27 03:07:32;;;;;;;8.10;2.70;;;17.20;15.50;;;;;;5047606;28;20497;-69
2023/06/27 03:09:59;;;;;;;6.63;2.50;;;17.20;15.70;;;;;;5049138;28;20478;-67
2023/06/27 03:12:25;;;;;;;6.27;2.70;;;17.20;15.80;;;;;;5048436;28;20458;-67
2023/06/27 03:14:52;;;;;;;9.40;3.07;;;17.20;15.90;;;;;;5048362;28;20466;-67
2023/06/27 03:17:19;;;;;;;5.60;2.47;;;17.20;15.70;;;;;;5049960;28;20946;-69
2023/06/27 03:19:45;;;;;;;6.57;2.60;;;17.20;15.70;;;;;;5048580;28;20469;-68
2023/06/27 03:22:13;;;;;;;6.30;2.33;;;17.20;15.70;;;;;;5047422;28;20458;-69
2023/06/27 03:24:40;;;;;;;6.37;2.23;;;17.20;15.70;;;;;;5048014;28;20489;-68
2023/06/27 03:27:07;;;;;;;6.20;2.20;;;17.20;15.60;;;;;;5048670;28;20489;-68
2023/06/27 03:29:34;;;;;;;8.10;3.03;;;17.20;15.80;;;;;;5045287;28;20473;-66
2023/06/27 03:32:00;;;;;;;36.93;4.83;;;17.20;15.90;;;;;;5048346;28;20478;-66
2023/06/27 03:34:27;;;;;;;8.23;2.60;;;17.30;16.20;;;;;;5045370;28;20552;-64
2023/06/27 03:36:54;;;;;;;12.87;2.53;;;17.30;16.10;;;;;;5048496;28;20895;-65
2023/06/27 03:39:22;;;;;;;7.53;2.67;;;17.40;16.00;;;;;;5047637;28;20461;-66
2023/06/27 03:41:48;;;;;;;8.00;2.87;;;17.40;15.70;;;;;;5043075;28;20459;-64
2023/06/27 03:44:15;;;;;;;11.87;3.50;;;17.50;15.60;;;;;;5043752;28;20569;-64
2023/06/27 03:46:42;;;;;;;10.27;3.23;;;17.50;15.30;;;;;;5045743;28;21161;-64
2023/06/27 03:49:08;;;;;;;9.60;2.53;;;17.50;15.60;;;;;;5044173;28;20506;-65
2023/06/27 03:51:37;;;;;;;7.73;2.37;;;17.50;15.70;;;;;;5047361;28;20458;-65
2023/06/27 03:54:06;;;;;;;8.80;2.83;;;17.50;15.90;;;;;;5042536;28;21146;-65
2023/06/27 03:56:34;;;;;;;11.57;2.57;;;17.50;16.00;;;;;;5048238;28;20462;-64
2023/06/27 03:59:01;;;;;;;6.17;2.30;;;17.50;16.20;;;;;;5051668;28;20458;-65
2023/06/27 04:01:27;;;;;;;7.00;2.30;;;17.50;16.20;;;;;;5052725;28;20478;-65
2023/06/27 04:03:54;;;;;;;6.33;2.70;;;17.50;16.20;;;;;;5045854;28;20478;-64
2023/06/27 04:06:21;;;;;;;9.80;2.43;;;17.50;16.10;;;;;;5051891;28;20829;-64
2023/06/27 04:08:48;;;;;;;5.80;2.10;;;17.50;16.10;;;;;;5054255;28;20488;-64
2023/06/27 04:11:15;;;;;;;5.77;2.87;;;17.60;16.00;;;;;;5051118;28;20465;-64
2023/06/27 04:13:43;;;;;;;6.50;2.97;;;17.60;16.10;;;;;;5051026;28;20892;-64
2023/06/27 04:16:09;;;;;;;9.07;2.17;;;17.60;15.90;;;;;;5053999;28;20462;-64
2023/06/27 04:18:36;;;;;;;8.80;2.50;;;17.70;15.80;;;;;;5051931;28;20461;-64
2023/06/27 04:21:03;;;;;;;13.17;3.40;;;17.70;15.80;;;;;;5048425;28;20461;-65
2023/06/27 04:23:29;;;;;;;7.80;2.80;;;17.70;16.00;;;;;;5045587;28;20481;-65
2023/06/27 04:26:02;;;;;;;8.70;2.77;;;17.70;15.90;;;;;;5047590;28;21288;-65
2023/06/27 04:28:30;;;;;;;7.57;3.03;;;17.70;15.90;;;;;;5046165;28;20489;-64
2023/06/27 04:30:59;;;;;;;8.30;3.43;;;17.80;16.20;;;;;;5047193;28;20501;-65
2023/06/27 04:33:27;;;;;;;6.03;2.57;;;17.80;16.60;;;;;;5048630;28;20470;-64
2023/06/27 04:35:54;;;;;;;6.97;3.63;;;17.80;16.60;;;;;;5047714;28;20464;-65
2023/06/27 04:38:21;;;;;;;7.43;2.77;;;17.80;16.50;;;;;;5047591;28;20466;-64
2023/06/27 04:40:48;;;;;;;9.00;3.23;;;18.00;16.50;;;;;;5048178;28;20457;-65
2023/06/27 04:43:14;;;;;;;6.77;2.50;;;18.00;16.70;;;;;;5048461;28;20485;-64
2023/06/27 04:45:41;;;;;;;8.30;2.80;;;18.20;17.20;;;;;;5047550;28;20940;-65
2023/06/27 04:48:09;;;;;;;7.83;2.50;;;18.30;17.10;;;;;;5048190;28;20458;-64
2023/06/27 04:50:36;;;;;;;6.00;2.23;;;18.30;16.80;;;;;;5048320;28;20932;-64
2023/06/27 04:53:04;;;;;;;7.93;2.40;;;18.30;16.40;;;;;;5045220;28;20489;-64
2023/06/27 04:55:31;;;;;;;7.07;2.60;;;18.40;16.30;;;;;;5047002;28;20485;-64
2023/06/27 04:57:57;;;;;;;5.60;3.00;;;18.40;16.00;;;;;;5046942;28;20489;-64
2023/06/27 05:00:24;;;;;;;11.23;2.77;;;18.40;16.20;;;;;;5047572;28;20954;-65
2023/06/27 05:02:51;;;;;;;6.90;2.60;;;18.40;16.30;;;;;;5047393;28;20502;-64
2023/06/27 05:05:19;;;;;;;9.17;3.50;;;18.40;16.50;;;;;;5045841;28;20458;-64
2023/06/27 05:07:46;;;;;;;10.20;3.10;;;18.40;15.90;;;;;;5047073;28;20465;-64
2023/06/27 05:10:13;;;;;;;8.40;2.87;;;18.50;16.00;;;;;;5045213;28;21098;-64
2023/06/27 05:12:39;;;;;;;10.13;2.77;;;18.50;15.80;;;;;;5046686;28;20481;-64
2023/06/27 05:15:07;;;;;;;7.30;3.00;;;18.60;15.50;;;;;;5047765;28;20454;-64
2023/06/27 05:17:34;;;;;;;8.00;2.63;;;18.70;15.80;;;;;;5047423;28;20454;-64
2023/06/27 05:20:00;;;;;;;8.23;3.07;;;18.70;15.50;;;;;;5046970;28;20454;-64
2023/06/27 05:22:28;;;;;;;10.63;3.20;;;18.70;15.50;;;;;;5045351;28;20465;-64
2023/06/27 05:24:55;;;;;;;8.20;2.90;;;18.70;15.50;;;;;;5046481;28;20458;-65
2023/06/27 05:27:22;;;;;;;10.23;3.47;;;18.70;15.80;;;;;;5047607;28;20462;-64
2023/06/27 05:29:49;;;;;;;5.97;2.63;;;18.70;15.60;;;;;;5047141;28;20478;-64
2023/06/27 05:32:16;;;;;;;8.10;2.60;;;18.70;15.70;;;;;;5046752;28;20474;-64
2023/06/27 05:34:42;;;;;;;8.63;3.03;;;18.70;15.60;;;;;;5044258;28;20522;-64
2023/06/27 05:37:09;;;;;;;7.00;2.63;;;18.80;15.40;;;;;;5046712;28;20458;-64
2023/06/27 05:39:37;;;;;;;10.20;3.07;;;18.80;15.60;;;;;;5048057;28;20962;-64
2023/06/27 05:42:04;;;;;;;6.70;2.37;;;18.90;15.30;;;;;;5048539;28;20464;-64
2023/06/27 05:44:31;;;;;;;8.30;3.63;;;19.00;15.40;;;;;;5046367;28;20493;-64
2023/06/27 05:46:58;;;;;;;9.10;2.90;;;19.10;15.20;;;;;;5054100;28;20457;-64
2023/06/27 05:49:25;;;;;;;8.17;3.37;;;19.20;15.50;;;;;;5050244;28;20484;-65
2023/06/27 05:51:51;;;;;;;9.00;3.07;;;19.30;14.80;;;;;;5051641;28;20508;-65
2023/06/27 05:54:18;;;;;;;11.93;3.20;;;19.40;14.60;;;;;;5045963;28;20489;-65
2023/06/27 05:56:46;;;;;;;9.80;2.77;;;19.40;14.30;;;;;;5053120;28;20457;-64
2023/06/27 05:59:13;;;;;;;6.00;2.67;;;19.40;13.80;;;;;;5051241;28;20461;-65
2023/06/27 06:01:40;;;;;;;7.47;2.60;;;19.40;13.60;;;;;;5054025;28;20499;-64
2023/06/27 06:04:07;;;;;;;11.23;2.53;;;19.40;13.20;;;;;;5053336;28;20568;-65
2023/06/27 06:06:37;;;;;;;8.27;3.40;;;19.40;13.30;;;;;;5053154;28;20475;-65
2023/06/27 06:09:04;;;;;;;8.27;2.97;;;19.40;13.30;;;;;;5050515;28;20487;-65
2023/06/27 06:11:31;;;;;;;10.57;2.43;;;19.40;13.30;;;;;;5045341;28;20536;-64
2023/06/27 06:13:59;;;;;;;7.53;3.10;;;19.50;13.20;;;;;;5050678;28;20485;-64
2023/06/27 06:16:27;;;;;;;8.67;2.70;;;19.50;12.90;;;;;;5056250;28;20454;-64
2023/06/27 06:18:54;;;;;;;10.73;4.00;;;19.60;12.90;;;;;;5049501;28;20469;-65
2023/06/27 06:21:21;;;;;;;9.13;2.67;;;19.70;13.10;;;;;;5053294;28;20461;-64
2023/06/27 06:23:47;;;;;;;10.50;2.90;;;20.10;12.70;;;;;;5054763;28;20473;-65
2023/06/27 06:26:14;;;;;;;6.30;2.37;;;20.60;12.40;;;;;;5052485;28;20465;-65
2023/06/27 06:28:41;;;;;;;11.33;2.80;;;21.50;11.80;;;;;;5050788;28;20948;-64
2023/06/27 06:31:10;;;;;;;8.37;2.67;;;22.30;10.10;;;;;;5051530;28;20485;-65
2023/06/27 06:33:37;;;;;;;7.67;2.60;;;23.00;8.30;;;;;;5052378;28;20908;-64
2023/06/27 06:36:05;;;;;;;7.43;3.13;;;23.40;7.00;;;;;;5052004;28;20489;-64
2023/06/27 06:38:32;;;;;;;9.43;3.43;;;23.60;6.10;;;;;;5055618;28;20541;-64
2023/06/27 06:40:58;;;;;;;8.07;3.30;;;24.20;5.80;;;;;;5053881;28;20480;-64
2023/06/27 06:43:26;;;;;;;6.47;2.90;;;25.70;3.80;;;;;;5046980;28;20496;-64
2023/06/27 06:45:53;;;;;;;7.17;2.97;;;27.80;1.00;;;;;;5047284;28;20495;-65
2023/06/27 06:48:21;;;;;;;7.43;3.00;;;29.30;1.00;;;;;;5059801;28;20458;-65
2023/06/27 06:50:50;;;;;;;6.30;2.60;;;30.20;1.00;;;;;;5057705;28;20480;-65
2023/06/27 06:53:16;;;;;;;6.30;2.67;;;30.70;1.00;;;;;;5062788;28;20843;-65
2023/06/27 06:55:43;;;;;;;7.03;2.90;;;31.70;1.00;;;;;;5059742;28;20833;-65
2023/06/27 06:58:10;;;;;;;9.60;2.27;;;32.80;1.00;;;;;;5053958;28;21051;-65
2023/06/27 07:00:37;;;;;;;7.70;2.70;;;34.40;1.00;;;;;;5054617;28;20470;-65
2023/06/27 07:03:04;;;;;;;7.40;2.40;;;35.00;1.00;;;;;;5050739;28;20666;-65
2023/06/27 07:05:32;;;;;;;7.87;2.40;;;35.30;1.00;;;;;;5057634;28;20464;-65
2023/06/27 07:07:58;;;;;;;5.80;2.30;;;35.70;1.00;;;;;;5054071;28;20461;-65
2023/06/27 07:10:25;;;;;;;5.70;2.00;;;36.20;1.00;;;;;;5053625;28;21036;-65
2023/06/27 07:12:52;;;;;;;6.07;2.37;;;36.00;1.00;;;;;;5050988;28;20478;-65
2023/06/27 07:15:21;;;;;;;6.00;2.70;;;36.60;1.00;;;;;;5056495;28;20458;-65
2023/06/27 07:17:48;;;;;;;6.03;2.63;;;37.50;1.00;;;;;;5054451;28;20936;-65
2023/06/27 07:20:16;;;;;;;6.50;2.60;;;38.30;1.00;;;;;;5053038;28;20462;-66
2023/06/27 07:22:44;;;;;;;8.13;2.87;;;38.80;1.00;;;;;;5051685;28;20508;-65
2023/06/27 07:25:10;;;;;;;6.47;2.57;;;39.10;1.00;;;;;;5059103;28;20854;-65
2023/06/27 07:27:37;;;;;;;5.60;2.10;;;39.80;1.00;;;;;;5061304;28;21254;-65
2023/06/27 07:30:04;;;;;;;4.97;1.80;;;40.30;1.00;;;;;;5059026;28;20492;-65
2023/06/27 07:32:31;;;;;;;6.40;2.40;;;41.20;1.00;;;;;;5048302;28;20470;-65
2023/06/27 07:34:58;;;;;;;6.83;2.80;;;42.50;1.00;;;;;;5054421;28;20484;-66
2023/06/27 07:37:24;;;;;;;7.10;2.37;;;43.40;1.00;;;;;;5054392;28;20465;-65
2023/06/27 07:39:52;;;;;;;7.13;2.30;;;44.20;1.00;;;;;;5058804;28;21037;-66
2023/06/27 07:42:19;;;;;;;5.20;1.70;;;45.10;1.00;;;;;;5051782;28;20463;-65
2023/06/27 07:44:46;;;;;;;5.50;2.00;;;45.90;1.00;;;;;;5057781;28;21328;-66
2023/06/27 07:47:13;;;;;;;6.13;2.30;;;44.80;1.00;;;;;;5053969;28;20461;-66
2023/06/27 07:49:40;;;;;;;5.13;2.10;;;44.70;1.00;;;;;;5056696;28;20464;-65
2023/06/27 07:52:07;;;;;;;4.27;1.80;;;45.20;1.00;;;;;;5048807;28;20457;-65
2023/06/27 07:54:34;;;;;;;9.90;2.50;;;45.30;1.00;;;;;;5066451;22;20458;-65
2023/06/27 07:57:03;;;;;;;5.67;1.90;;;45.60;1.00;;;;;;5044018;28;20461;-65
2023/06/27 07:59:29;;;;;;;6.10;2.07;;;45.60;1.00;;;;;;5046447;28;20945;-65
2023/06/27 08:01:56;;;;;;;5.97;2.40;;;46.10;1.00;;;;;;5047048;28;20465;-65
2023/06/27 08:04:23;;;;;;;8.10;1.83;;;46.40;1.00;;;;;;5036568;28;20482;-66
2023/06/27 08:06:50;;;;;;;6.30;1.93;;;47.00;1.00;;;;;;5035242;28;20477;-67
2023/06/27 08:09:17;;;;;;;5.73;2.13;;;47.50;1.00;;;;;;5036732;28;20463;-65
2023/06/27 08:11:43;;;;;;;4.27;1.80;;;48.30;1.00;;;;;;5037375;28;20479;-65
2023/06/27 08:14:11;;;;;;;6.00;2.10;;;48.70;1.00;;;;;;5035576;28;20483;-66
2023/06/27 08:16:38;;;;;;;4.90;1.87;;;48.90;1.00;;;;;;5037435;28;20462;-66
2023/06/27 08:19:05;;;;;;;5.70;1.90;;;49.30;1.00;;;;;;5038952;28;20465;-66
2023/06/27 08:21:31;;;;;;;7.87;2.40;;;49.30;1.00;;;;;;5030794;28;20462;-65
2023/06/27 08:23:58;;;;;;;5.03;1.90;;;49.90;1.00;;;;;;5037608;28;20493;-66
2023/06/27 08:26:25;;;;;;;6.70;1.97;;;50.00;1.00;;;;;;5030004;28;20462;-65
2023/06/27 08:28:52;;;;;;;8.43;2.30;;;50.30;1.00;;;;;;5026931;28;20491;-66
2023/06/27 08:31:20;;;;;;;4.30;1.70;;;51.00;1.00;;;;;;5027721;28;20510;-65
2023/06/27 08:33:47;;;;;;;6.00;2.13;;;51.60;1.00;;;;;;5026886;28;20489;-66
2023/06/27 08:36:14;;;;;;;8.40;2.10;;;52.30;1.00;;;;;;5028542;28;20462;-65
2023/06/27 08:38:40;;;;;;;8.70;1.70;;;52.60;1.00;;;;;;5029149;28;20473;-65
2023/06/27 08:41:11;;;;;;;5.60;2.17;;;52.80;1.00;;;;;;5028595;28;20470;-66
2023/06/27 08:43:39;;;;;;;5.50;1.70;;;53.10;1.00;;;;;;5028167;28;20564;-66
2023/06/27 08:46:09;;;;;;;5.50;1.80;;;53.60;1.00;;;;;;5027150;28;20455;-66
2023/06/27 08:48:40;;;;;;;8.93;2.10;;;54.20;1.00;;;;;;5024614;28;20485;-65
2023/06/27 08:51:08;;;;;;;7.30;2.67;;;54.40;1.00;;;;;;5028352;28;20485;-65
2023/06/27 08:53:37;;;;;;;7.13;2.63;;;54.60;1.00;;;;;;5028745;28;20571;-66
2023/06/27 08:56:07;;;;;;;5.20;2.40;;;54.80;1.00;;;;;;5027555;28;20469;-65
2023/06/27 08:58:41;;;;;;;7.97;1.93;;;55.00;1.00;;;;;;5028291;28;20455;-66
2023/06/27 09:01:09;;;;;;;4.80;1.67;;;54.80;1.00;;;;;;5025491;28;20490;-66
2023/06/27 09:03:38;;;;;;;6.80;1.93;;;54.60;1.00;;;;;;5028608;28;20487;-65
2023/06/27 09:06:05;;;;;;;5.40;2.10;;;53.70;1.00;;;;;;5028778;28;20462;-66
2023/06/27 09:08:32;;;;;;;5.03;2.10;;;51.90;1.00;;;;;;5024678;28;20466;-66
2023/06/27 09:11:00;;;;;;;4.97;2.20;;;49.20;1.00;;;;;;5027120;28;20491;-66
2023/06/27 09:13:27;;;;;;;6.93;2.10;;;47.70;1.00;;;;;;5028700;28;20485;-65
2023/06/27 09:15:54;;;;;;;5.83;2.60;;;48.20;1.00;;;;;;5031953;28;20455;-65
2023/06/27 09:18:21;;;;;;;6.67;2.90;;;46.00;1.00;;;;;;5051174;28;20492;-66
2023/06/27 09:20:49;;;;;;;6.23;2.23;;;44.30;1.00;;;;;;5046582;28;20811;-65
2023/06/27 09:23:17;;;;;;;5.23;2.10;;;44.30;1.00;;;;;;5025389;28;20483;-65
2023/06/27 09:25:43;;;;;;;9.27;2.77;;;43.70;1.00;;;;;;5026976;28;20454;-66
2023/06/27 09:28:17;;;;;;;8.17;2.87;;;43.00;1.00;;;;;;5028511;28;20466;-66
2023/06/27 09:30:55;;;;;;;5.90;2.13;;;41.40;1.00;;;;;;5027817;28;20511;-66
2023/06/27 09:33:22;;;;;;;6.90;2.80;;;39.70;1.00;;;;;;5027046;28;20483;-65
2023/06/27 09:35:50;;;;;;;7.60;2.60;;;38.40;1.00;;;;;;5022688;28;21504;-65
2023/06/27 09:38:19;;;;;;;6.53;2.17;;;37.20;1.00;;;;;;5028444;28;20463;-65
2023/06/27 09:40:48;;;;;;;6.53;2.70;;;36.30;1.00;;;;;;5028087;28;20450;-66
2023/06/27 09:43:15;;;;;;;15.73;12.10;;;35.50;1.00;;;;;;5026774;28;20502;-66
2023/06/27 09:45:42;;;;;;;8.07;3.97;;;34.70;1.00;;;;;;5028437;28;20466;-65
2023/06/27 09:48:10;;;;;;;7.43;2.40;;;34.20;1.00;;;;;;5027968;28;20459;-66
2023/06/27 09:50:39;;;;;;;4.70;2.10;;;33.80;1.00;;;;;;5026704;28;20537;-65
2023/06/27 09:53:09;;;;;;;6.90;3.60;;;33.60;1.00;;;;;;5024314;28;20510;-66
2023/06/27 09:55:35;;;;;;;10.33;3.10;;;33.40;1.00;;;;;;5027969;28;20488;-66
2023/06/27 09:58:04;;;;;;;8.13;3.00;;;33.20;1.00;;;;;;5026538;28;20465;-66
2023/06/27 10:00:31;;;;;;;6.87;4.20;;;33.10;1.00;;;;;;5026197;28;20506;-64
2023/06/27 10:02:57;;;;;;;9.20;2.80;;;33.00;1.00;;;;;;5024417;28;20483;-65
2023/06/27 10:05:24;;;;;;;6.70;2.63;;;32.80;1.00;;;;;;5025497;28;20466;-66
2023/06/27 10:07:53;;;;;;;6.87;2.53;;;32.70;1.00;;;;;;5028271;28;20459;-65
2023/06/27 10:10:26;;;;;;;5.60;2.70;;;32.60;1.00;;;;;;5027284;28;20465;-65
2023/06/27 10:12:54;;;;;;;6.20;2.67;;;32.50;1.00;;;;;;5028638;28;20475;-65
2023/06/27 10:15:21;;;;;;;9.80;4.90;;;32.40;1.00;;;;;;5026978;28;20459;-64
2023/06/27 10:17:48;;;;;;;14.47;3.77;;;32.50;1.00;;;;;;5027948;28;20466;-65
2023/06/27 10:20:15;;;;;;;9.73;3.93;;;32.40;1.00;;;;;;5026683;28;20462;-65
2023/06/27 10:22:44;;;;;;;5.60;2.50;;;32.30;1.00;;;;;;5031616;28;20990;-66
2023/06/27 10:25:12;;;;;;;9.30;3.50;;;32.30;1.00;;;;;;5027837;28;20458;-65
2023/06/27 10:27:42;;;;;;;6.93;2.90;;;32.20;1.00;;;;;;5030511;28;20458;-65
2023/06/27 10:30:14;;;;;;;8.57;3.10;;;32.10;1.00;;;;;;5029783;28;20470;-64
2023/06/27 10:32:43;;;;;;;6.23;2.40;;;32.00;1.00;;;;;;5030349;28;20502;-66
2023/06/27 10:35:12;;;;;;;5.93;2.87;;;32.00;1.00;;;;;;5031279;28;20462;-64
2023/06/27 10:37:42;;;;;;;5.97;2.33;;;32.00;1.00;;;;;;5029539;28;20495;-65
2023/06/27 10:40:09;;;;;;;5.00;1.77;;;31.90;1.00;;;;;;5031767;28;20466;-65
2023/06/27 10:42:38;;;;;;;6.07;2.40;;;31.90;1.00;;;;;;5029770;28;20458;-65
2023/06/27 10:45:10;;;;;;;5.97;2.77;;;31.80;1.00;;;;;;5026289;28;20458;-65
2023/06/27 10:47:39;;;;;;;9.73;3.00;;;31.60;1.00;;;;;;5032709;28;20935;-66
2023/06/27 10:50:09;;;;;;;8.17;2.10;;;31.60;1.00;;;;;;5031014;28;20486;-65
2023/06/27 10:52:37;;;;;;;7.83;2.67;;;31.40;1.00;;;;;;5030972;28;20474;-66
2023/06/27 10:55:23;;;;;;;6.30;2.40;;;31.20;1.00;;;;;;5030308;28;20474;-65
2023/06/27 10:57:58;;;;;;;6.67;2.60;;;30.90;1.00;;;;;;5029698;28;20454;-66
2023/06/27 11:00:30;;;;;;;7.87;2.53;;;30.80;1.00;;;;;;5029207;28;20458;-66
2023/06/27 11:02:58;;;;;;;5.90;2.70;;;30.60;1.00;;;;;;5030931;28;20474;-66
2023/06/27 11:05:45;;;;;;;8.27;2.93;;;30.50;1.00;;;;;;5029398;28;20474;-66
2023/06/27 11:08:15;;;;;;;7.10;2.53;;;30.40;1.00;;;;;;5029111;28;20881;-65
2023/06/27 11:10:53;;;;;;;9.37;3.53;;;30.30;1.00;;;;;;5030207;28;20455;-66
2023/06/27 11:13:25;;;;;;;7.23;2.43;;;30.30;1.00;;;;;;5031545;28;20489;-65
2023/06/27 11:15:55;;;;;;;6.30;2.30;;;30.10;1.00;;;;;;5026195;28;20868;-65
2023/06/27 11:18:25;;;;;;;7.33;2.70;;;30.10;1.00;;;;;;5031846;28;20462;-65
2023/06/27 11:20:51;;;;;;;6.60;2.43;;;30.10;1.00;;;;;;5037560;28;20556;-64
2023/06/27 11:23:20;;;;;;;7.00;2.90;;;30.00;1.00;;;;;;5039425;28;20491;-65
2023/06/27 11:25:47;;;;;;;6.07;2.40;;;29.80;1.00;;;;;;5033627;28;20926;-64
2023/06/27 11:28:16;;;;;;;8.33;2.57;;;29.90;1.00;;;;;;5034314;28;21148;-65
2023/06/27 11:30:43;;;;;;;5.83;2.37;;;29.70;1.00;;;;;;5034503;28;20501;-65
2023/06/27 11:33:13;;;;;;;6.60;2.57;;;29.80;1.00;;;;;;5033984;28;21164;-65
2023/06/27 11:35:40;;;;;;;7.20;2.30;;;29.70;1.00;;;;;;5034503;28;20473;-65
2023/06/27 11:38:07;;;;;;;7.33;2.83;;;29.70;1.00;;;;;;5033006;28;20931;-65
2023/06/27 11:40:34;;;;;;;7.00;2.80;;;29.70;1.00;;;;;;5035432;28;20455;-65
2023/06/27 11:43:03;;;;;;;8.00;2.87;;;29.70;1.00;;;;;;5032377;28;20474;-65
2023/06/27 11:45:31;;;;;;;8.20;3.17;;;29.70;1.00;;;;;;5041074;28;20466;-66
2023/06/27 11:47:57;;;;;;;9.47;3.10;;;29.60;1.00;;;;;;5037625;28;20455;-65
2023/06/27 11:50:26;;;;;;;7.30;2.60;;;29.50;1.00;;;;;;5042649;28;20951;-64
2023/06/27 11:52:53;;;;;;;6.37;2.77;;;29.30;1.00;;;;;;5031783;28;20997;-65
2023/06/27 11:55:20;;;;;;;8.10;2.87;;;29.20;1.00;;;;;;5034741;28;20478;-65
2023/06/27 11:57:48;;;;;;;11.33;3.17;;;29.10;1.00;;;;;;5039519;28;20462;-65
2023/06/27 12:00:22;;;;;;;7.17;2.57;;;28.90;1.00;;;;;;5033353;28;20467;-66
2023/06/27 12:02:50;;;;;;;6.60;2.90;;;28.80;1.00;;;;;;5037670;28;20484;-65
2023/06/27 12:05:18;;;;;;;9.53;2.63;;;28.70;1.00;;;;;;5029304;28;20466;-65
2023/06/27 12:08:05;;;;;;;7.87;2.40;;;28.60;1.00;;;;;;5030696;28;21172;-65
2023/06/27 12:10:32;;;;;;;9.07;2.87;;;28.50;1.00;;;;;;5032687;28;20470;-67
2023/06/27 12:13:01;;;;;;;15.23;3.93;;;28.50;1.00;;;;;;5025470;28;20496;-66
2023/06/27 12:15:28;;;;;;;8.37;3.30;;;28.50;1.00;;;;;;5028409;28;20473;-66
2023/06/27 12:17:59;;;;;;;7.50;2.63;;;28.50;1.00;;;;;;5029069;28;20462;-66
2023/06/27 12:20:27;;;;;;;12.43;3.03;;;28.60;1.00;;;;;;5029170;28;20497;-66
2023/06/27 12:22:54;;;;;;;6.33;2.40;;;28.70;1.00;;;;;;5029265;28;20487;-66
2023/06/27 12:25:22;;;;;;;7.20;2.40;;;28.70;1.00;;;;;;5024561;28;20471;-66
2023/06/27 12:27:49;;;;;;;6.57;2.30;;;28.80;1.00;;;;;;5027477;28;20460;-66
2023/06/27 12:30:16;;;;;;;7.03;2.60;;;28.90;1.00;;;;;;5029031;28;21012;-67
2023/06/27 12:32:42;;;;;;;18.60;4.10;;;28.90;1.00;;;;;;5029292;28;20490;-66
2023/06/27 12:35:09;;;;;;;10.90;2.90;;;28.90;1.00;;;;;;5026911;28;20452;-66
2023/06/27 12:37:38;;;;;;;6.50;2.50;;;29.00;1.00;;;;;;5034351;28;20507;-66
2023/06/27 12:40:06;;;;;;;7.27;2.47;;;28.90;1.00;;;;;;5054881;28;20489;-67
2023/06/27 12:42:34;;;;;;;5.90;2.80;;;28.90;1.00;;;;;;5044158;28;20950;-66
2023/06/27 12:45:00;;;;;;;7.20;2.73;;;28.90;1.00;;;;;;5035546;28;20454;-66
2023/06/27 12:47:27;;;;;;;9.07;3.03;;;29.00;1.00;;;;;;5026112;28;20462;-66
2023/06/27 12:49:54;;;;;;;9.50;2.90;;;29.00;1.00;;;;;;5039207;28;20935;-66
2023/06/27 12:52:21;;;;;;;6.63;2.40;;;29.00;1.00;;;;;;5033036;28;20478;-66
2023/06/27 12:54:47;;;;;;;6.80;3.10;;;29.10;1.00;;;;;;5034632;28;20457;-66
2023/06/27 12:57:14;;;;;;;6.27;2.17;;;29.10;1.00;;;;;;5028559;28;20459;-65